Terminal Aerodrome Forecast
Issued by NWS

Home | Current Version | Previous Version | Text Only | Print | Product List | Glossary Off
Versions: 1 2 3 4 5 6 7 8 9 10 11 12 13 14 15 16 17 18 19 20 21 22 23 24

000
FTUS43 KBIS 191908 AAA
TAFMOT
TAF AMD
KMOT 191908Z 1919/2018 VRB03KT P6SM OVC020
     FM192000 25004KT P6SM SCT020
     FM192100 16004KT P6SM SCT020
     FM200500 15004KT 1SM BR BKN010
     FM201400 13004KT 2SM BR BKN020
     FM201600 13005KT P6SM BKN050=

USA.gov is the U.S. government's official web portal to all federal, state and local government web resources and services.